Terminal Aerodrome Forecast
Issued by NWS

Home | Current Version | Previous Version | Graphics & Text | Print | Product List | Glossary On
Versions: 1 2 3 4 5 6 7 8 9 10 11 12 13 14 15 16 17 18 19 20 21 22 23 24 25
000
FTUS43 KPAH 161526 AAC
TAFCGI
TAF AMD
KCGI 161526Z 1615/1712 13008KT P6SM SCT004 OVC040
      TEMPO 1615/1619 5SM -SHRA BR BKN004 OVC025
     FM161900 15009KT 2SM -SHRA BR OVC005
     FM162200 17012KT 3SM -SHRA BR VCTS OVC010CB
      TEMPO 1700/1704 2SM -TSRA BR OVC008CB
     FM170700 23010KT 4SM BR OVC015=

USA.gov is the U.S. government's official web portal to all federal, state and local government web resources and services.